« Back
NWS Peachtree City, Ga » Text Product » ATL Terminal Aerodrome Forecast


Printer-friendly Version
Current Version              Previous Versions:   1  2  3  4  5  6  7  8  9  

Terminal Aerodrome Forecast

591
FTUS42 KFFC 031552 AAB
TAFATL
TAF AMD
KATL 031552Z 0316/0418 34007KT P6SM SCT080 BKN150
     FM031800 31007KT P6SM BKN050
      TEMPO 0319/0323 -SHRA
     FM040000 30004KT P6SM SCT060 SCT150
     FM041400 36004KT P6SM FEW040 SCT250=

USA.gov is the U.S. government's official web portal to all federal, state and local government web resources and services.